createdAt,value
2019-01-21T00:09:10.972Z,8.95
2019-01-21T00:11:52.867Z,8.63
2019-01-21T00:14:39.597Z,9.63
2019-01-21T00:17:25.878Z,9.30
2019-01-21T00:20:08.629Z,8.78
2019-01-21T00:23:33.560Z,8.40
2019-01-21T00:26:13.698Z,8.63
2019-01-21T00:28:59.335Z,9.10
2019-01-21T00:31:42.134Z,8.23
2019-01-21T00:34:23.548Z,8.38
2019-01-21T00:37:06.452Z,8.60
2019-01-21T00:39:55.136Z,8.60
2019-01-21T00:42:47.913Z,7.97
2019-01-21T00:45:29.123Z,8.70
2019-01-21T00:48:36.104Z,8.43
2019-01-21T00:54:57.983Z,8.35
2019-01-21T00:57:48.045Z,8.88
2019-01-21T01:00:29.697Z,8.45
2019-01-21T01:03:10.814Z,8.85
2019-01-21T01:05:50.397Z,7.90
2019-01-21T01:08:53.991Z,8.38
2019-01-21T01:11:43.323Z,8.10
2019-01-21T01:14:41.033Z,7.67
2019-01-21T01:17:47.348Z,8.38
2019-01-21T01:21:10.105Z,8.20
2019-01-21T01:24:16.537Z,8.33
2019-01-21T01:27:17.503Z,8.35
2019-01-21T01:30:02.758Z,7.95
2019-01-21T01:32:51.284Z,7.00
2019-01-21T01:35:35.344Z,8.00
2019-01-21T01:38:33.508Z,7.60
2019-01-21T01:41:22.890Z,7.62
2019-01-21T01:44:17.831Z,7.75
2019-01-21T01:47:03.665Z,8.00
2019-01-21T01:49:56.796Z,7.62
2019-01-21T01:52:35.990Z,7.53
2019-01-21T01:55:44.187Z,7.53
2019-01-21T01:59:07.817Z,7.67
2019-01-21T02:02:03.172Z,7.83
2019-01-21T02:04:40.694Z,8.03
2019-01-21T02:07:45.604Z,7.25
2019-01-21T02:10:23.423Z,7.70
2019-01-21T02:13:23.853Z,7.37
2019-01-21T02:16:13.420Z,7.58
2019-01-21T02:19:11.459Z,7.67
2019-01-21T02:22:19.559Z,7.72
2019-01-21T02:25:15.762Z,7.35
2019-01-21T02:28:39.473Z,7.50
2019-01-21T02:32:33.292Z,7.30
2019-01-21T02:36:18.737Z,7.12
2019-01-21T02:40:16.804Z,7.12
2019-01-21T02:48:31.939Z,6.62
2019-01-21T02:52:06.485Z,7.17
2019-01-21T02:56:11.532Z,7.28
2019-01-21T03:00:05.954Z,7.03
2019-01-21T03:03:47.211Z,7.40
2019-01-21T03:07:13.498Z,6.70
2019-01-21T03:11:07.745Z,6.22
2019-01-21T03:22:40.505Z,6.40
2019-01-21T03:26:27.329Z,7.08
2019-01-21T03:29:49.260Z,6.60
2019-01-21T03:33:22.152Z,6.60
2019-01-21T03:37:00.396Z,6.42
2019-01-21T03:40:27.449Z,6.55
2019-01-21T03:44:10.998Z,6.37
2019-01-21T03:47:49.594Z,6.22
2019-01-21T03:51:29.878Z,6.25
2019-01-21T03:59:28.519Z,5.87
2019-01-21T04:03:17.356Z,6.50
2019-01-21T04:06:34.741Z,6.28
2019-01-21T04:10:06.024Z,5.97
2019-01-21T04:13:58.504Z,6.72
2019-01-21T04:17:56.838Z,6.20
2019-01-21T04:21:12.586Z,6.08
2019-01-21T04:24:50.737Z,6.47
2019-01-21T04:28:34.713Z,6.25
2019-01-21T04:32:20.114Z,6.03
2019-01-21T04:35:51.030Z,6.08
2019-01-21T04:39:19.124Z,5.70
2019-01-21T04:42:53.862Z,5.87
2019-01-21T04:46:15.282Z,6.03
2019-01-21T04:50:05.723Z,6.03
2019-01-21T04:54:04.076Z,6.35
2019-01-21T04:57:18.312Z,5.90
2019-01-21T05:00:48.266Z,5.97
2019-01-21T05:04:42.446Z,7.00
2019-01-21T05:08:43.926Z,11.08
2019-01-21T05:12:19.260Z,10.10
2019-01-21T05:16:11.265Z,9.28
2019-01-21T05:19:41.826Z,7.40
2019-01-21T05:23:02.697Z,5.92
2019-01-21T05:26:50.122Z,6.78
2019-01-21T05:30:25.472Z,6.45
2019-01-21T05:33:53.325Z,6.45
2019-01-21T05:37:17.097Z,5.62
2019-01-21T05:40:47.799Z,6.25
2019-01-21T05:44:16.262Z,6.35
2019-01-21T05:48:08.520Z,6.03
2019-01-21T05:51:40.686Z,6.12
2019-01-21T05:55:19.901Z,6.50
2019-01-21T05:59:05.594Z,6.15
2019-01-21T06:02:53.430Z,5.20
2019-01-21T06:06:33.371Z,5.45
2019-01-21T06:10:02.619Z,6.25
2019-01-21T06:13:29.813Z,7.50
2019-01-21T06:16:45.180Z,31.75
2019-01-21T06:20:22.800Z,30.20
2019-01-21T06:23:37.748Z,30.23
2019-01-21T06:27:19.585Z,29.00
2019-01-21T06:30:37.812Z,22.67
2019-01-21T06:34:07.039Z,17.67
2019-01-21T06:37:53.338Z,11.73
2019-01-21T06:41:06.980Z,9.58
2019-01-21T06:44:53.181Z,9.10
2019-01-21T06:48:22.274Z,8.70
2019-01-21T06:51:56.537Z,8.98
2019-01-21T06:55:12.460Z,8.90
2019-01-21T06:58:38.448Z,9.70
2019-01-21T07:02:23.918Z,8.63
2019-01-21T07:06:11.662Z,8.63
2019-01-21T07:09:47.334Z,8.68
2019-01-21T07:13:08.457Z,8.20
2019-01-21T07:16:21.677Z,8.48
2019-01-21T07:19:26.201Z,7.78
2019-01-21T07:22:41.328Z,8.13
2019-01-21T07:25:54.305Z,7.92
2019-01-21T07:29:09.483Z,7.83
2019-01-21T07:32:34.192Z,7.25
2019-01-21T07:36:13.428Z,7.28
2019-01-21T07:39:42.855Z,7.78
2019-01-21T07:43:25.270Z,7.33
2019-01-21T07:46:23.213Z,7.62
2019-01-21T07:49:23.690Z,6.92
2019-01-21T07:53:11.819Z,6.80
2019-01-21T07:56:43.798Z,7.30
2019-01-21T08:00:07.234Z,7.10
2019-01-21T08:03:26.743Z,6.72
2019-01-21T08:07:15.572Z,6.72
2019-01-21T08:11:10.573Z,6.72
2019-01-21T08:14:32.359Z,6.85
2019-01-21T08:18:08.649Z,6.65
2019-01-21T08:21:08.650Z,7.03
2019-01-21T08:24:47.180Z,6.70
2019-01-21T08:28:13.098Z,6.87
2019-01-21T08:31:40.520Z,6.85
2019-01-21T08:35:28.622Z,6.70
2019-01-21T08:39:10.926Z,6.72
2019-01-21T08:42:02.251Z,6.40
2019-01-21T08:45:20.093Z,6.95
2019-01-21T08:48:45.721Z,6.90
2019-01-21T08:52:03.195Z,6.47
2019-01-21T08:55:46.080Z,6.03
2019-01-21T08:59:04.739Z,6.17
2019-01-21T09:02:28.415Z,6.22
2019-01-21T09:05:42.041Z,6.45
2019-01-21T09:08:58.649Z,6.83
2019-01-21T09:12:33.587Z,6.35
2019-01-21T09:15:44.732Z,6.20
2019-01-21T09:19:07.987Z,6.30
2019-01-21T09:22:32.552Z,6.72
2019-01-21T09:26:19.148Z,6.08
2019-01-21T09:30:03.622Z,6.33
2019-01-21T09:33:28.224Z,6.50
2019-01-21T09:37:01.012Z,6.05
2019-01-21T09:40:14.891Z,5.53
2019-01-21T09:43:44.352Z,5.87
2019-01-21T09:46:48.376Z,5.97
2019-01-21T09:49:16.863Z,5.55
2019-01-21T09:51:55.927Z,5.60
2019-01-21T09:54:26.960Z,6.03
2019-01-21T09:56:59.379Z,5.75
2019-01-21T09:59:30.880Z,5.55
2019-01-21T10:02:02.748Z,5.50
2019-01-21T10:04:43.481Z,5.70
2019-01-21T10:07:40.098Z,5.72
2019-01-21T10:11:34.114Z,5.83
2019-01-21T10:15:10.688Z,5.90
2019-01-21T10:18:34.865Z,5.70
2019-01-21T10:22:19.153Z,5.55
2019-01-21T10:25:57.552Z,5.97
2019-01-21T10:29:15.703Z,5.50
2019-01-21T10:32:51.771Z,5.53
2019-01-21T10:36:14.721Z,5.20
2019-01-21T10:40:02.758Z,5.85
2019-01-21T10:43:25.013Z,5.37
2019-01-21T10:46:26.644Z,5.30
2019-01-21T10:50:06.731Z,5.67
2019-01-21T10:54:07.980Z,5.42
2019-01-21T10:57:28.985Z,5.12
2019-01-21T11:00:35.741Z,5.37
2019-01-21T11:04:01.411Z,5.33
2019-01-21T11:07:45.656Z,5.50
2019-01-21T11:10:44.052Z,5.53
2019-01-21T11:14:14.112Z,4.75
2019-01-21T11:17:31.001Z,5.20
2019-01-21T11:21:15.475Z,5.25
2019-01-21T11:24:54.150Z,5.53
2019-01-21T11:28:17.874Z,5.22
2019-01-21T11:31:48.987Z,5.30
2019-01-21T11:35:14.346Z,5.45
2019-01-21T11:38:24.452Z,5.30
2019-01-21T11:41:54.686Z,5.10
2019-01-21T11:44:54.520Z,5.42
2019-01-21T11:48:08.721Z,5.55
2019-01-21T11:52:17.533Z,6.20
2019-01-21T11:55:43.633Z,6.15
2019-01-21T11:59:18.971Z,5.95
2019-01-21T12:02:55.520Z,5.80
2019-01-21T12:06:07.760Z,5.92
2019-01-21T12:09:43.704Z,6.20
2019-01-21T12:12:48.792Z,5.90
2019-01-21T12:16:25.866Z,6.05
2019-01-21T12:20:00.279Z,6.72
2019-01-21T12:23:17.601Z,6.60
2019-01-21T12:26:28.278Z,6.35
2019-01-21T12:29:57.047Z,6.85
2019-01-21T12:33:31.110Z,6.05
2019-01-21T12:36:28.141Z,6.10
2019-01-21T12:40:17.298Z,6.08
2019-01-21T12:43:47.006Z,5.95
2019-01-21T12:46:41.725Z,6.08
2019-01-21T12:49:54.736Z,5.70
2019-01-21T12:52:59.527Z,5.85
2019-01-21T12:56:35.682Z,6.40
2019-01-21T12:59:47.450Z,5.87
2019-01-21T13:02:46.313Z,5.67
2019-01-21T13:06:30.280Z,6.25
2019-01-21T13:09:51.808Z,5.80
2019-01-21T13:13:42.188Z,5.87
2019-01-21T13:17:31.053Z,5.58
2019-01-21T13:21:00.469Z,5.80
2019-01-21T13:24:15.601Z,5.83
2019-01-21T13:28:14.503Z,5.90
2019-01-21T13:31:51.119Z,5.83
2019-01-21T13:35:31.080Z,5.28
2019-01-21T13:38:50.453Z,5.33
2019-01-21T13:41:49.679Z,5.80
2019-01-21T13:45:31.090Z,5.83
2019-01-21T13:49:19.506Z,5.25
2019-01-21T13:53:00.369Z,6.03
2019-01-21T13:55:48.624Z,5.35
2019-01-21T13:59:35.460Z,5.72
2019-01-21T14:02:37.031Z,6.50
2019-01-21T14:06:14.044Z,6.42
2019-01-21T14:09:55.989Z,6.28
2019-01-21T14:13:26.482Z,6.30
2019-01-21T14:16:49.463Z,6.67
2019-01-21T14:19:56.271Z,6.20
2019-01-21T14:23:34.532Z,6.53
2019-01-21T14:26:47.610Z,6.50
2019-01-21T14:29:56.952Z,6.35
2019-01-21T14:33:16.432Z,6.10
2019-01-21T14:36:29.392Z,6.03
2019-01-21T14:39:52.301Z,7.25
2019-01-21T14:43:36.458Z,6.60
2019-01-21T14:47:03.483Z,6.53
2019-01-21T14:50:50.745Z,6.20
2019-01-21T14:54:25.687Z,6.65
2019-01-21T14:57:58.676Z,6.62
2019-01-21T15:01:24.464Z,7.00
2019-01-21T15:05:04.262Z,6.25
2019-01-21T15:07:47.213Z,6.62
2019-01-21T15:11:24.423Z,6.20
2019-01-21T15:14:07.035Z,6.20
2019-01-21T15:17:36.880Z,5.83
2019-01-21T15:20:57.614Z,5.83
2019-01-21T15:24:26.185Z,6.60
2019-01-21T15:27:11.189Z,7.72
2019-01-21T15:30:36.351Z,7.03
2019-01-21T15:33:40.193Z,6.58
2019-01-21T15:37:15.924Z,6.60
2019-01-21T15:40:35.924Z,6.70
2019-01-21T15:43:57.769Z,6.47
2019-01-21T15:47:16.660Z,6.75
2019-01-21T15:50:44.148Z,7.08
2019-01-21T15:53:41.857Z,6.45
2019-01-21T15:56:44.324Z,7.45
2019-01-21T15:59:39.939Z,7.00
2019-01-21T16:02:25.911Z,7.12
2019-01-21T16:05:59.731Z,7.00
2019-01-21T16:09:21.071Z,7.08
2019-01-21T16:12:52.727Z,7.37
2019-01-21T16:16:32.460Z,6.92
2019-01-21T16:19:33.001Z,7.10
2019-01-21T16:22:55.026Z,6.50
2019-01-21T16:26:12.468Z,6.45
2019-01-21T16:29:35.721Z,6.67
2019-01-21T16:32:36.092Z,6.28
2019-01-21T16:35:42.797Z,7.53
2019-01-21T16:38:47.674Z,7.58
2019-01-21T16:42:14.317Z,7.03
2019-01-21T16:44:47.266Z,7.67
2019-01-21T16:47:18.471Z,7.92
2019-01-21T16:49:49.472Z,7.70
2019-01-21T16:52:20.727Z,7.65
2019-01-21T16:54:51.522Z,8.08
2019-01-21T16:57:22.493Z,7.58
2019-01-21T16:59:53.761Z,7.97
2019-01-21T17:02:27.020Z,7.70
2019-01-21T17:04:58.109Z,7.50
2019-01-21T17:07:33.213Z,7.00
2019-01-21T17:10:04.269Z,7.53
2019-01-21T17:12:35.946Z,7.25
2019-01-21T17:15:08.431Z,7.12
2019-01-21T17:17:39.712Z,7.85
2019-01-21T17:20:16.393Z,7.37
2019-01-21T17:22:47.131Z,7.10
2019-01-21T17:25:17.712Z,6.50
2019-01-21T17:27:48.353Z,7.47
2019-01-21T17:30:20.053Z,8.08
2019-01-21T17:32:54.777Z,7.62
2019-01-21T17:35:26.289Z,9.65
2019-01-21T17:37:58.033Z,9.53
2019-01-21T17:40:29.407Z,8.63
2019-01-21T17:43:00.843Z,10.05
2019-01-21T17:45:32.144Z,8.75
2019-01-21T17:48:03.671Z,8.53
2019-01-21T17:50:35.227Z,9.48
2019-01-21T17:53:06.799Z,9.05
2019-01-21T17:55:38.138Z,9.23
2019-01-21T17:58:09.405Z,9.20
2019-01-21T18:00:40.705Z,9.08
2019-01-21T18:03:12.014Z,8.13
2019-01-21T18:05:43.333Z,8.88
2019-01-21T18:08:14.820Z,9.10
2019-01-21T18:10:45.841Z,9.45
2019-01-21T18:13:17.160Z,9.15
2019-01-21T18:15:48.403Z,9.13
2019-01-21T18:18:19.729Z,8.88
2019-01-21T18:20:51.005Z,9.00
2019-01-21T18:23:22.879Z,8.83
2019-01-21T18:25:54.626Z,9.48
2019-01-21T18:28:25.994Z,8.08
2019-01-21T18:30:57.422Z,9.23
2019-01-21T18:33:28.639Z,9.20
2019-01-21T18:36:00.087Z,9.18
2019-01-21T18:38:33.878Z,8.55
2019-01-21T18:41:05.295Z,8.55
2019-01-21T18:43:36.696Z,8.10
2019-01-21T18:46:08.384Z,8.48
2019-01-21T18:48:39.594Z,8.15
2019-01-21T18:51:10.798Z,8.55
2019-01-21T18:53:42.431Z,8.75
2019-01-21T18:56:14.482Z,8.13
2019-01-21T18:58:45.896Z,9.58
2019-01-21T19:01:17.210Z,8.25
2019-01-21T19:03:48.609Z,8.68
2019-01-21T19:06:19.774Z,8.40
2019-01-21T19:08:51.235Z,8.78
2019-01-21T19:11:22.276Z,8.68
2019-01-21T19:13:53.343Z,8.20
2019-01-21T19:16:24.397Z,8.70
2019-01-21T19:18:55.414Z,8.98
2019-01-21T19:21:26.360Z,9.50
2019-01-21T19:23:57.293Z,8.80
2019-01-21T19:26:28.398Z,8.03
2019-01-21T19:28:59.408Z,8.78
2019-01-21T19:31:30.743Z,8.60
2019-01-21T19:34:01.876Z,9.80
2019-01-21T19:36:32.711Z,9.15
2019-01-21T19:39:05.633Z,9.40
2019-01-21T19:41:36.515Z,10.10
2019-01-21T19:44:07.913Z,11.83
2019-01-21T19:46:44.065Z,9.63
2019-01-21T19:49:11.436Z,9.78
2019-01-21T19:51:42.128Z,19.05
2019-01-21T19:54:12.820Z,50.33
2019-01-21T19:56:43.442Z,40.38
2019-01-21T19:59:14.426Z,37.30
2019-01-21T20:01:45.749Z,34.60
2019-01-21T20:04:16.833Z,33.45
2019-01-21T20:06:48.025Z,33.10
2019-01-21T20:09:19.239Z,32.03
2019-01-21T20:11:50.381Z,30.30
2019-01-21T20:14:21.266Z,20.48
2019-01-21T20:16:52.295Z,20.82
2019-01-21T20:19:23.591Z,21.37
2019-01-21T20:21:54.669Z,18.05
2019-01-21T20:24:26.084Z,16.95
2019-01-21T20:26:57.281Z,14.80
2019-01-21T20:29:28.530Z,16.10
2019-01-21T20:32:00.315Z,14.40
2019-01-21T20:34:33.237Z,14.30
2019-01-21T20:37:07.221Z,14.90
2019-01-21T20:39:40.916Z,14.23
2019-01-21T20:42:13.238Z,14.65
2019-01-21T20:44:45.569Z,13.88
2019-01-21T20:47:17.395Z,15.35
2019-01-21T20:49:49.419Z,14.07
2019-01-21T20:52:22.186Z,14.87
2019-01-21T20:54:53.113Z,14.90
2019-01-21T20:57:24.109Z,16.30
2019-01-21T20:59:59.353Z,16.40
2019-01-21T21:02:32.481Z,16.07
2019-01-21T21:05:04.578Z,16.90
2019-01-21T21:07:36.817Z,17.50
2019-01-21T21:10:10.644Z,19.32
2019-01-21T21:12:43.134Z,18.45
2019-01-21T21:15:22.098Z,26.37
2019-01-21T21:17:53.793Z,19.48
2019-01-21T21:20:25.676Z,14.60
2019-01-21T21:22:57.443Z,11.95
2019-01-21T21:25:28.951Z,12.47
2019-01-21T21:28:01.191Z,11.50
2019-01-21T21:30:38.695Z,11.93
2019-01-21T21:33:10.319Z,11.95
2019-01-21T21:35:43.821Z,12.53
2019-01-21T21:38:16.800Z,18.20
2019-01-21T21:40:49.845Z,21.20
2019-01-21T21:43:25.924Z,25.15
2019-01-21T21:45:58.100Z,27.52
2019-01-21T21:48:31.842Z,24.98
2019-01-21T21:51:04.353Z,25.37
2019-01-21T21:53:37.162Z,24.52
2019-01-21T21:56:08.298Z,31.93
2019-01-21T21:58:52.172Z,30.40
2019-01-21T22:01:24.688Z,31.45
2019-01-21T22:03:57.347Z,31.82
2019-01-21T22:06:28.688Z,28.65
2019-01-21T22:09:01.142Z,28.50
2019-01-21T22:11:32.795Z,25.48
2019-01-21T22:14:04.018Z,24.12
2019-01-21T22:16:35.725Z,24.12
2019-01-21T22:19:37.851Z,23.67
2019-01-21T22:22:34.703Z,23.57
2019-01-21T22:26:21.086Z,21.80
2019-01-21T22:29:35.247Z,22.50
2019-01-21T22:32:31.059Z,21.87
2019-01-21T22:35:24.035Z,20.70
2019-01-21T22:38:40.048Z,20.10
2019-01-21T22:41:51.611Z,20.65
2019-01-21T22:44:40.254Z,20.92
2019-01-21T22:47:21.560Z,19.00
2019-01-21T22:49:59.192Z,21.45
2019-01-21T22:52:41.919Z,19.00
2019-01-21T22:55:20.055Z,17.73
2019-01-21T22:58:21.193Z,17.42
2019-01-21T23:01:49.360Z,17.87
2019-01-21T23:04:29.461Z,17.42
2019-01-21T23:07:31.392Z,17.20
2019-01-21T23:10:05.875Z,16.32
2019-01-21T23:13:00.890Z,16.37
2019-01-21T23:15:46.720Z,16.75
2019-01-21T23:18:28.508Z,16.27
2019-01-21T23:21:34.386Z,15.65
2019-01-21T23:23:37.089Z,16.37
2019-01-21T23:26:08.359Z,15.72
2019-01-21T23:28:39.629Z,15.60
2019-01-21T23:31:10.629Z,14.87
2019-01-21T23:33:42.696Z,15.80
2019-01-21T23:36:14.338Z,14.15
2019-01-21T23:38:45.454Z,15.13
2019-01-21T23:41:16.430Z,15.98
2019-01-21T23:43:47.639Z,14.78
2019-01-21T23:46:18.858Z,15.75
2019-01-21T23:48:50.089Z,14.93
2019-01-21T23:51:21.942Z,15.03
2019-01-21T23:53:53.593Z,14.98
2019-01-21T23:56:24.873Z,14.80
2019-01-21T23:58:55.969Z,14.73
